createdAt,value
2019-01-30T00:00:53.501Z,84.90
2019-01-30T00:03:20.444Z,84.50
2019-01-30T00:05:47.432Z,85.00
2019-01-30T00:08:14.509Z,84.50
2019-01-30T00:10:41.652Z,84.60
2019-01-30T00:13:08.702Z,84.50
2019-01-30T00:15:35.712Z,84.50
2019-01-30T00:18:03.541Z,84.20
2019-01-30T00:20:30.513Z,84.50
2019-01-30T00:22:57.444Z,84.40
2019-01-30T00:25:24.418Z,84.40
2019-01-30T00:27:51.453Z,84.40
2019-01-30T00:30:18.660Z,84.40
2019-01-30T00:32:45.785Z,83.80
2019-01-30T00:35:12.781Z,83.90
2019-01-30T00:37:39.757Z,83.90
2019-01-30T00:40:07.778Z,83.80
2019-01-30T00:42:34.741Z,83.30
2019-01-30T00:45:01.781Z,82.50
2019-01-30T00:47:28.674Z,83.00
2019-01-30T00:49:56.434Z,83.50
2019-01-30T00:52:23.483Z,83.80
2019-01-30T00:54:50.484Z,83.30
2019-01-30T00:57:17.437Z,83.50
2019-01-30T00:59:44.512Z,83.20
2019-01-30T01:02:11.625Z,83.40
2019-01-30T01:04:38.662Z,83.00
2019-01-30T01:07:05.796Z,82.80
2019-01-30T01:09:32.768Z,82.70
2019-01-30T01:11:59.745Z,82.20
2019-01-30T01:14:26.752Z,81.80
2019-01-30T01:16:53.720Z,81.10
2019-01-30T01:19:20.905Z,81.00
2019-01-30T01:21:47.877Z,81.00
2019-01-30T01:24:14.832Z,81.00
2019-01-30T01:26:41.835Z,81.00
2019-01-30T01:29:08.939Z,80.40
2019-01-30T01:31:35.934Z,80.90
2019-01-30T01:34:03.264Z,81.10
2019-01-30T01:36:30.253Z,81.40
2019-01-30T01:38:57.129Z,81.90
2019-01-30T01:41:24.143Z,81.60
2019-01-30T01:43:51.241Z,81.80
2019-01-30T01:46:18.212Z,82.50
2019-01-30T01:48:45.123Z,82.10
2019-01-30T01:51:12.210Z,81.90
2019-01-30T01:53:39.125Z,81.50
2019-01-30T01:56:06.073Z,80.90
2019-01-30T01:58:33.064Z,81.30
2019-01-30T02:01:00.071Z,81.60
2019-01-30T02:03:27.178Z,81.10
2019-01-30T02:05:54.104Z,80.70
2019-01-30T02:08:21.106Z,80.50
2019-01-30T02:10:48.189Z,80.20
2019-01-30T02:13:15.083Z,80.80
2019-01-30T02:15:42.022Z,80.30
2019-01-30T02:18:08.977Z,80.20
2019-01-30T02:20:35.957Z,80.50
2019-01-30T02:23:02.957Z,80.10
2019-01-30T02:25:30.056Z,80.40
2019-01-30T02:27:57.105Z,80.90
2019-01-30T02:30:26.033Z,80.80
2019-01-30T02:32:53.111Z,80.60
2019-01-30T02:35:21.966Z,80.30
2019-01-30T02:37:49.075Z,80.10
2019-01-30T02:40:18.583Z,79.30
2019-01-30T02:42:45.899Z,79.40
2019-01-30T02:45:15.994Z,79.40
2019-01-30T02:47:42.930Z,80.00
2019-01-30T02:50:12.566Z,79.50
2019-01-30T02:52:39.711Z,79.40
2019-01-30T02:55:08.301Z,79.50
2019-01-30T02:57:35.289Z,79.60
2019-01-30T03:00:02.993Z,78.50
2019-01-30T03:02:30.031Z,78.20
2019-01-30T03:04:57.016Z,78.30
2019-01-30T03:07:24.052Z,78.30
2019-01-30T03:09:51.047Z,78.10
2019-01-30T03:12:18.004Z,78.00
2019-01-30T03:14:45.171Z,77.40
2019-01-30T03:17:12.082Z,78.10
2019-01-30T03:19:39.181Z,77.50
2019-01-30T03:22:06.129Z,77.70
2019-01-30T03:24:33.210Z,78.30
2019-01-30T03:27:00.379Z,78.10
2019-01-30T03:29:27.637Z,77.90
2019-01-30T03:31:55.015Z,77.50
2019-01-30T03:34:22.158Z,77.40
2019-01-30T03:36:49.055Z,77.20
2019-01-30T03:39:16.073Z,77.10
2019-01-30T03:41:43.130Z,77.20
2019-01-30T03:44:10.107Z,77.10
2019-01-30T03:46:37.173Z,76.80
2019-01-30T03:49:06.005Z,77.20
2019-01-30T03:51:33.097Z,77.20
2019-01-30T03:54:00.062Z,77.30
2019-01-30T03:56:26.980Z,77.90
2019-01-30T03:58:55.709Z,77.60
2019-01-30T04:01:26.685Z,77.30
2019-01-30T04:03:52.905Z,77.30
2019-01-30T04:06:19.961Z,77.00
2019-01-30T04:08:46.976Z,77.20
2019-01-30T04:11:14.674Z,76.90
2019-01-30T04:13:41.630Z,76.80
2019-01-30T04:16:08.605Z,76.80
2019-01-30T04:18:36.582Z,76.70
2019-01-30T04:21:03.501Z,76.70
2019-01-30T04:23:30.693Z,76.90
2019-01-30T04:25:57.719Z,77.10
2019-01-30T04:28:24.806Z,76.90
2019-01-30T04:30:51.757Z,77.30
2019-01-30T04:33:18.709Z,76.90
2019-01-30T04:35:45.676Z,77.30
2019-01-30T04:38:12.723Z,76.90
2019-01-30T04:40:39.883Z,76.70
2019-01-30T04:43:07.102Z,77.20
2019-01-30T04:45:34.104Z,77.40
2019-01-30T04:48:01.074Z,77.10
2019-01-30T04:50:28.021Z,76.50
2019-01-30T04:52:54.992Z,76.90
2019-01-30T04:55:22.022Z,76.90
2019-01-30T04:57:50.282Z,76.60
2019-01-30T05:00:21.934Z,76.50
2019-01-30T05:02:49.140Z,76.80
2019-01-30T05:05:16.149Z,76.30
2019-01-30T05:07:43.121Z,76.10
2019-01-30T05:10:10.536Z,76.00
2019-01-30T05:12:37.585Z,75.50
2019-01-30T05:15:06.745Z,75.70
2019-01-30T05:17:33.806Z,76.20
2019-01-30T05:20:00.735Z,75.90
2019-01-30T05:22:27.815Z,75.90
2019-01-30T05:24:54.738Z,76.00
2019-01-30T05:27:21.881Z,75.50
2019-01-30T05:29:48.860Z,75.60
2019-01-30T05:32:15.974Z,76.20
2019-01-30T05:34:42.941Z,75.50
2019-01-30T05:37:09.908Z,75.30
2019-01-30T05:39:36.814Z,75.80
2019-01-30T05:42:03.876Z,75.70
2019-01-30T05:44:30.913Z,75.30
2019-01-30T05:46:57.969Z,75.40
2019-01-30T05:49:25.105Z,75.90
2019-01-30T05:51:52.126Z,76.10
2019-01-30T05:54:19.025Z,76.20
2019-01-30T05:56:45.988Z,75.90
2019-01-30T05:59:14.349Z,76.40
2019-01-30T06:01:41.288Z,76.30
2019-01-30T06:04:08.287Z,77.00
2019-01-30T06:06:35.286Z,76.80
2019-01-30T06:09:04.129Z,76.30
2019-01-30T06:11:32.222Z,76.40
2019-01-30T06:14:01.084Z,76.10
2019-01-30T06:16:29.899Z,76.40
2019-01-30T06:18:57.001Z,77.00
2019-01-30T06:21:23.998Z,76.70
2019-01-30T06:23:52.778Z,76.50
2019-01-30T06:26:19.792Z,76.40
2019-01-30T06:28:46.894Z,76.50
2019-01-30T06:31:13.899Z,77.40
2019-01-30T06:33:40.869Z,78.90
2019-01-30T06:36:09.711Z,79.70
2019-01-30T06:38:36.612Z,79.70
2019-01-30T06:41:04.575Z,80.90
2019-01-30T06:43:33.276Z,81.30
2019-01-30T06:46:00.222Z,82.20
2019-01-30T06:48:27.297Z,83.90
2019-01-30T06:50:54.510Z,85.10
2019-01-30T06:53:21.610Z,87.00
2019-01-30T06:55:48.713Z,88.10
2019-01-30T06:58:15.766Z,88.40
2019-01-30T07:00:42.859Z,89.70
2019-01-30T07:03:09.847Z,90.80
2019-01-30T07:05:43.250Z,91.30
2019-01-30T07:08:10.309Z,91.60
2019-01-30T07:10:39.009Z,91.90
2019-01-30T07:13:06.189Z,92.00
2019-01-30T07:15:33.463Z,92.30
2019-01-30T07:18:00.574Z,92.60
2019-01-30T07:20:27.814Z,92.90
2019-01-30T07:22:54.918Z,92.50
2019-01-30T07:25:21.971Z,93.10
2019-01-30T07:27:49.045Z,93.10
2019-01-30T07:30:18.460Z,93.10
2019-01-30T07:32:45.369Z,93.10
2019-01-30T07:35:12.893Z,93.10
2019-01-30T07:37:39.981Z,93.30
2019-01-30T07:40:08.048Z,93.70
2019-01-30T07:42:35.109Z,93.60
2019-01-30T07:45:02.411Z,94.00
2019-01-30T07:47:29.377Z,93.40
2019-01-30T07:49:56.363Z,93.90
2019-01-30T07:52:23.379Z,93.90
2019-01-30T07:54:50.305Z,93.70
2019-01-30T07:57:17.275Z,93.20
2019-01-30T07:59:44.650Z,93.20
2019-01-30T08:02:11.668Z,93.20
2019-01-30T08:04:38.690Z,93.20
2019-01-30T08:07:05.702Z,93.60
2019-01-30T08:09:34.098Z,93.90
2019-01-30T08:12:01.125Z,93.60
2019-01-30T08:14:28.184Z,93.80
2019-01-30T08:16:55.121Z,94.10
2019-01-30T08:19:26.041Z,94.70
2019-01-30T08:21:53.169Z,94.10
2019-01-30T08:24:20.344Z,93.50
2019-01-30T08:26:47.870Z,93.20
2019-01-30T08:29:15.171Z,93.20
2019-01-30T08:31:42.321Z,93.20
2019-01-30T08:34:09.336Z,93.00
2019-01-30T08:36:36.428Z,92.70
2019-01-30T08:39:06.597Z,92.90
2019-01-30T08:41:34.436Z,93.20
2019-01-30T08:44:03.683Z,93.20
2019-01-30T08:46:30.706Z,93.00
2019-01-30T08:48:57.934Z,93.20
2019-01-30T08:51:25.016Z,92.60
2019-01-30T08:53:52.285Z,92.40
2019-01-30T08:56:19.253Z,92.10
2019-01-30T08:58:46.196Z,91.80
2019-01-30T09:01:13.246Z,91.90
2019-01-30T09:03:40.401Z,92.00
2019-01-30T09:06:07.392Z,91.90
2019-01-30T09:08:34.676Z,91.90
2019-01-30T09:11:01.685Z,91.80
2019-01-30T09:13:28.883Z,91.30
2019-01-30T09:15:55.917Z,92.00
2019-01-30T09:18:22.954Z,92.10
2019-01-30T09:20:50.079Z,92.10
2019-01-30T09:23:17.110Z,92.20
2019-01-30T09:25:44.051Z,92.10
2019-01-30T09:28:13.709Z,92.40
2019-01-30T09:30:40.738Z,92.20
2019-01-30T09:33:10.721Z,91.90
2019-01-30T09:35:37.909Z,91.50
2019-01-30T09:38:05.341Z,91.50
2019-01-30T09:40:32.342Z,91.90
2019-01-30T09:42:59.284Z,91.40
2019-01-30T09:45:26.279Z,91.40
2019-01-30T09:47:53.347Z,90.80
2019-01-30T09:50:20.507Z,90.60
2019-01-30T09:52:47.890Z,90.30
2019-01-30T09:55:15.122Z,90.40
2019-01-30T09:57:42.097Z,90.30
2019-01-30T10:00:13.802Z,90.10
2019-01-30T10:02:41.023Z,90.10
2019-01-30T10:05:08.345Z,90.20
2019-01-30T10:07:35.407Z,89.30
2019-01-30T10:10:04.080Z,90.00
2019-01-30T10:12:31.065Z,90.30
2019-01-30T10:14:58.046Z,90.40
2019-01-30T10:17:25.091Z,90.10
2019-01-30T10:19:55.183Z,89.40
2019-01-30T10:22:22.619Z,88.00
2019-01-30T10:24:50.618Z,88.50
2019-01-30T10:27:19.134Z,89.30
2019-01-30T10:29:47.009Z,89.20
2019-01-30T10:32:14.050Z,89.30
2019-01-30T10:34:41.151Z,89.20
2019-01-30T10:37:08.109Z,89.60
2019-01-30T10:39:37.119Z,89.80
2019-01-30T10:42:04.391Z,89.40
2019-01-30T10:44:31.357Z,89.50
2019-01-30T10:46:58.355Z,89.60
2019-01-30T10:49:26.188Z,89.20
2019-01-30T10:51:53.211Z,89.30
2019-01-30T10:54:20.387Z,89.30
2019-01-30T10:56:47.379Z,89.20
2019-01-30T10:59:14.472Z,89.70
2019-01-30T11:01:41.456Z,90.10
2019-01-30T11:04:08.504Z,90.00
2019-01-30T11:06:35.393Z,90.20
2019-01-30T11:09:06.438Z,90.20
2019-01-30T11:11:33.680Z,90.30
2019-01-30T11:14:00.688Z,90.40
2019-01-30T11:16:28.815Z,90.50
2019-01-30T11:18:55.887Z,90.10
2019-01-30T11:21:22.942Z,90.20
2019-01-30T11:23:50.002Z,90.40
2019-01-30T11:26:16.946Z,90.30
2019-01-30T11:28:43.858Z,90.00
2019-01-30T11:31:10.924Z,90.10
2019-01-30T11:33:37.977Z,90.60
2019-01-30T11:36:05.111Z,90.50
2019-01-30T11:38:33.311Z,90.20
2019-01-30T11:41:00.359Z,90.00
2019-01-30T11:43:27.271Z,90.10
2019-01-30T11:45:54.304Z,90.10
2019-01-30T11:48:21.388Z,90.10
2019-01-30T11:50:48.512Z,90.20
2019-01-30T11:53:15.684Z,90.20
2019-01-30T11:55:42.760Z,90.30
2019-01-30T11:58:14.954Z,90.50
2019-01-30T12:00:47.458Z,90.40
2019-01-30T12:03:14.475Z,90.50
2019-01-30T12:05:43.313Z,90.60
2019-01-30T12:08:12.432Z,90.60
2019-01-30T12:10:39.455Z,90.50
2019-01-30T12:13:06.588Z,90.90
2019-01-30T12:15:33.611Z,91.00
2019-01-30T12:18:00.734Z,90.90
2019-01-30T12:20:27.672Z,90.80
2019-01-30T12:22:54.611Z,91.10
2019-01-30T12:25:21.781Z,91.20
2019-01-30T12:27:50.804Z,91.20
2019-01-30T12:30:19.883Z,91.40
2019-01-30T12:32:46.880Z,91.30
2019-01-30T12:35:13.923Z,91.60
2019-01-30T12:37:40.980Z,91.40
2019-01-30T12:40:09.533Z,91.50
2019-01-30T12:42:36.611Z,91.70
2019-01-30T12:45:05.404Z,91.80
2019-01-30T12:47:32.377Z,91.90
2019-01-30T12:49:59.610Z,91.90
2019-01-30T12:52:26.675Z,92.20
2019-01-30T12:54:53.746Z,92.30
2019-01-30T12:57:20.777Z,92.50
2019-01-30T12:59:47.741Z,92.70
2019-01-30T13:02:14.773Z,93.00
2019-01-30T13:04:41.877Z,93.20
2019-01-30T13:07:08.964Z,93.30
2019-01-30T13:09:35.964Z,93.40
2019-01-30T13:12:02.874Z,93.50
2019-01-30T13:14:29.904Z,93.40
2019-01-30T13:16:57.362Z,93.50
2019-01-30T13:19:26.683Z,93.80
2019-01-30T13:21:53.649Z,93.60
2019-01-30T13:24:20.708Z,93.80
2019-01-30T13:26:48.037Z,93.90
2019-01-30T13:29:15.207Z,93.90
2019-01-30T13:31:42.293Z,93.90
2019-01-30T13:34:09.185Z,93.90
2019-01-30T13:36:36.237Z,94.20
2019-01-30T13:39:06.473Z,94.10
2019-01-30T13:41:33.465Z,94.60
2019-01-30T13:44:00.578Z,94.60
2019-01-30T13:46:27.632Z,94.60
2019-01-30T13:48:55.141Z,94.60
2019-01-30T13:51:22.200Z,95.10
2019-01-30T13:53:49.340Z,95.20
2019-01-30T13:56:16.401Z,95.20
2019-01-30T13:58:43.440Z,95.40
2019-01-30T14:01:17.268Z,95.40
2019-01-30T14:03:39.597Z,95.40
2019-01-30T14:06:06.773Z,95.40
2019-01-30T14:08:33.843Z,95.90
2019-01-30T14:11:00.913Z,95.90
2019-01-30T14:13:28.044Z,95.90
2019-01-30T14:15:55.154Z,96.20
2019-01-30T14:18:22.284Z,96.40
2019-01-30T14:20:49.328Z,96.70
2019-01-30T14:23:16.354Z,96.60
2019-01-30T14:25:43.361Z,96.70
2019-01-30T14:28:10.392Z,96.70
2019-01-30T14:30:38.404Z,96.90
2019-01-30T14:33:05.525Z,96.90
2019-01-30T14:35:38.973Z,97.20
2019-01-30T14:38:06.077Z,97.20
2019-01-30T14:40:33.161Z,97.40
2019-01-30T14:43:00.248Z,97.20
2019-01-30T14:45:27.285Z,97.30
2019-01-30T14:47:54.266Z,97.40
2019-01-30T14:50:22.641Z,97.20
2019-01-30T14:52:49.637Z,97.10
2019-01-30T14:55:17.709Z,97.20
2019-01-30T14:57:44.968Z,97.60
2019-01-30T15:00:23.406Z,97.70
2019-01-30T15:02:50.548Z,97.50
2019-01-30T15:05:22.349Z,97.30
2019-01-30T15:07:47.303Z,97.40
2019-01-30T15:10:15.819Z,97.40
2019-01-30T15:12:42.915Z,97.50
2019-01-30T15:15:12.040Z,97.80
2019-01-30T15:17:39.079Z,97.90
2019-01-30T15:20:11.573Z,97.70
2019-01-30T15:22:38.611Z,97.90
2019-01-30T15:25:07.134Z,98.10
2019-01-30T15:27:34.058Z,98.20
2019-01-30T15:30:01.143Z,98.20
2019-01-30T15:32:28.220Z,98.20
2019-01-30T15:34:55.208Z,98.60
2019-01-30T15:37:22.361Z,98.60
2019-01-30T15:39:49.294Z,98.30
2019-01-30T15:42:16.394Z,98.30
2019-01-30T15:44:43.392Z,98.30
2019-01-30T15:47:10.385Z,98.30
2019-01-30T15:49:37.445Z,98.40
2019-01-30T15:52:04.437Z,98.10
2019-01-30T15:54:31.441Z,97.90
2019-01-30T15:56:58.415Z,98.10
2019-01-30T15:59:25.328Z,97.90
2019-01-30T16:01:52.463Z,97.90
2019-01-30T16:04:19.358Z,97.70
2019-01-30T16:06:46.587Z,97.70
2019-01-30T16:09:13.624Z,97.70
2019-01-30T16:11:40.637Z,97.10
2019-01-30T16:14:08.284Z,97.70
2019-01-30T16:16:35.368Z,97.70
2019-01-30T16:19:02.500Z,97.90
2019-01-30T16:21:29.489Z,97.40
2019-01-30T16:23:56.633Z,97.70
2019-01-30T16:26:23.778Z,97.70
2019-01-30T16:28:52.336Z,97.60
2019-01-30T16:31:19.715Z,98.00
2019-01-30T16:33:48.556Z,98.20
2019-01-30T16:36:16.203Z,98.30
2019-01-30T16:38:43.983Z,98.30
2019-01-30T16:41:11.115Z,98.30
2019-01-30T16:43:38.135Z,98.30
2019-01-30T16:46:05.518Z,98.10
2019-01-30T16:48:32.684Z,97.70
2019-01-30T16:50:59.765Z,98.00
2019-01-30T16:53:26.801Z,98.00
2019-01-30T16:55:55.030Z,98.10
2019-01-30T16:58:23.769Z,97.90
2019-01-30T17:00:51.721Z,98.20
2019-01-30T17:03:18.972Z,98.30
2019-01-30T17:05:46.185Z,98.00
2019-01-30T17:08:13.313Z,98.20
2019-01-30T17:10:40.474Z,98.40
2019-01-30T17:13:07.489Z,98.50
2019-01-30T17:15:35.025Z,98.60
2019-01-30T17:18:02.227Z,98.70
2019-01-30T17:20:31.664Z,98.60
2019-01-30T17:22:58.772Z,98.50
2019-01-30T17:25:25.984Z,98.50
2019-01-30T17:27:53.049Z,98.50
2019-01-30T17:30:35.712Z,98.50
2019-01-30T17:33:03.507Z,98.60
2019-01-30T17:35:30.728Z,99.10
2019-01-30T17:37:59.639Z,98.80
2019-01-30T17:40:27.179Z,98.90
2019-01-30T17:42:54.130Z,99.20
2019-01-30T17:45:21.177Z,99.10
2019-01-30T17:47:48.521Z,98.90
2019-01-30T17:50:18.191Z,98.80
2019-01-30T17:52:45.527Z,98.80
2019-01-30T17:55:12.957Z,98.70
2019-01-30T17:57:40.823Z,99.10
2019-01-30T18:00:20.817Z,99.00
2019-01-30T18:02:47.978Z,99.10
2019-01-30T18:05:15.637Z,99.10
2019-01-30T18:07:42.809Z,99.60
2019-01-30T18:10:10.921Z,99.10
2019-01-30T18:12:37.941Z,99.00
2019-01-30T18:15:05.573Z,99.30
2019-01-30T18:17:32.928Z,99.00
2019-01-30T18:20:00.345Z,98.80
2019-01-30T18:22:27.749Z,98.60
2019-01-30T18:24:55.047Z,98.60
2019-01-30T18:27:22.321Z,98.60
2019-01-30T18:29:49.296Z,99.00
2019-01-30T18:32:16.425Z,98.80
2019-01-30T18:34:43.545Z,98.80
2019-01-30T18:37:10.754Z,99.00
2019-01-30T18:39:37.871Z,98.90
2019-01-30T18:42:04.884Z,99.00
2019-01-30T18:44:31.966Z,99.10
2019-01-30T18:46:59.146Z,98.80
2019-01-30T18:49:28.030Z,99.00
2019-01-30T18:51:55.122Z,98.90
2019-01-30T18:54:22.150Z,99.10
2019-01-30T18:56:51.100Z,99.20
2019-01-30T18:59:18.131Z,99.00
2019-01-30T19:01:45.387Z,99.20
2019-01-30T19:04:12.507Z,99.40
2019-01-30T19:06:39.439Z,99.70
2019-01-30T19:09:09.125Z,99.60
2019-01-30T19:11:36.302Z,99.50
2019-01-30T19:14:03.652Z,99.10
2019-01-30T19:16:30.720Z,99.50
2019-01-30T19:18:57.668Z,99.30
2019-01-30T19:21:25.169Z,99.40
2019-01-30T19:23:52.177Z,99.50
2019-01-30T19:26:19.144Z,99.50
2019-01-30T19:28:46.322Z,98.90
2019-01-30T19:31:13.502Z,99.20
2019-01-30T19:33:40.545Z,99.00
2019-01-30T19:36:07.745Z,99.10
2019-01-30T19:38:34.805Z,99.40
2019-01-30T19:41:01.741Z,99.10
2019-01-30T19:43:28.969Z,99.00
2019-01-30T19:45:56.265Z,98.80
2019-01-30T19:48:23.694Z,99.00
2019-01-30T19:50:50.934Z,98.90
2019-01-30T19:53:18.160Z,98.70
2019-01-30T19:55:45.247Z,99.00
2019-01-30T19:58:12.488Z,99.10
2019-01-30T20:00:44.787Z,98.70
2019-01-30T20:03:14.754Z,98.60
2019-01-30T20:05:42.037Z,98.00
2019-01-30T20:08:09.431Z,97.90
2019-01-30T20:10:37.473Z,98.00
2019-01-30T20:13:05.042Z,97.90
2019-01-30T20:15:32.417Z,97.50
2019-01-30T20:17:59.463Z,97.50
2019-01-30T20:20:29.136Z,97.00
2019-01-30T20:22:56.646Z,97.20
2019-01-30T20:25:26.599Z,96.80
2019-01-30T20:27:53.937Z,96.50
2019-01-30T20:30:21.442Z,96.40
2019-01-30T20:32:48.942Z,96.40
2019-01-30T20:35:16.633Z,96.30
2019-01-30T20:37:44.008Z,95.90
2019-01-30T20:40:13.785Z,95.80
2019-01-30T20:42:40.965Z,95.50
2019-01-30T20:45:10.319Z,95.20
2019-01-30T20:47:37.709Z,95.70
2019-01-30T20:50:08.581Z,95.60
2019-01-30T20:52:35.967Z,96.10
2019-01-30T20:55:04.786Z,96.30
2019-01-30T20:57:31.848Z,95.80
2019-01-30T20:59:58.922Z,95.80
2019-01-30T21:02:26.538Z,95.50
2019-01-30T21:04:53.769Z,95.40
2019-01-30T21:07:20.719Z,95.40
2019-01-30T21:09:47.958Z,95.10
2019-01-30T21:12:16.255Z,94.50
2019-01-30T21:14:43.415Z,93.50
2019-01-30T21:17:13.385Z,94.10
2019-01-30T21:19:40.801Z,94.40
2019-01-30T21:22:08.435Z,94.50
2019-01-30T21:24:35.687Z,94.40
2019-01-30T21:27:04.213Z,94.00
2019-01-30T21:29:31.262Z,93.60
2019-01-30T21:31:58.307Z,93.20
2019-01-30T21:34:25.343Z,93.00
2019-01-30T21:36:52.582Z,93.10
2019-01-30T21:39:19.720Z,93.00
2019-01-30T21:41:46.770Z,93.30
2019-01-30T21:44:13.867Z,92.80
2019-01-30T21:46:40.986Z,93.40
2019-01-30T21:49:08.211Z,93.10
2019-01-30T21:51:35.355Z,93.10
2019-01-30T21:54:02.321Z,93.40
2019-01-30T21:56:29.993Z,93.60
2019-01-30T21:58:57.135Z,93.60
2019-01-30T22:01:24.142Z,93.90
2019-01-30T22:03:51.081Z,94.10
2019-01-30T22:06:18.110Z,94.30
2019-01-30T22:08:45.070Z,94.10
2019-01-30T22:11:12.021Z,94.30
2019-01-30T22:13:38.965Z,94.30
2019-01-30T22:16:06.305Z,93.80
2019-01-30T22:18:33.854Z,93.70
2019-01-30T22:21:01.441Z,93.80
2019-01-30T22:23:28.495Z,93.90
2019-01-30T22:25:55.641Z,94.00
2019-01-30T22:28:22.729Z,94.10
2019-01-30T22:30:51.494Z,94.40
2019-01-30T22:33:20.238Z,94.50
2019-01-30T22:35:47.236Z,95.50
2019-01-30T22:38:14.279Z,95.80
2019-01-30T22:40:41.223Z,95.60
2019-01-30T22:43:08.289Z,95.30
2019-01-30T22:45:35.373Z,95.20
2019-01-30T22:48:03.014Z,95.70
2019-01-30T22:50:30.165Z,95.60
2019-01-30T22:52:57.209Z,95.20
2019-01-30T22:55:24.183Z,95.40
2019-01-30T22:57:51.576Z,95.10
2019-01-30T23:01:02.469Z,95.40
2019-01-30T23:04:10.119Z,96.10
2019-01-30T23:07:32.994Z,96.40
2019-01-30T23:10:21.139Z,97.00
2019-01-30T23:13:13.061Z,96.50
2019-01-30T23:16:05.060Z,96.60
2019-01-30T23:19:11.468Z,97.20
2019-01-30T23:22:01.738Z,96.90
2019-01-30T23:25:16.969Z,96.90
2019-01-30T23:27:54.173Z,96.90
2019-01-30T23:30:48.354Z,96.50
2019-01-30T23:33:44.654Z,96.60
2019-01-30T23:36:25.988Z,96.50
2019-01-30T23:39:47.049Z,96.50
2019-01-30T23:43:05.007Z,96.80
2019-01-30T23:46:15.902Z,96.70
2019-01-30T23:49:07.619Z,97.20
2019-01-30T23:52:01.581Z,97.40
2019-01-30T23:55:03.001Z,97.30
